sensor_id;sensor_type;location;lat;lon;timestamp;pressure;altitude;pressure_sealevel;temperature;humidity
44359;BME280;30077;52.474;13.326;2023-02-24T00:02:46;100340.50;;;6.65;100.00
44359;BME280;30077;52.474;13.326;2023-02-24T00:07:47;100322.81;;;6.65;100.00
44359;BME280;30077;52.474;13.326;2023-02-24T00:12:47;100327.00;;;6.72;100.00
44359;BME280;30077;52.474;13.326;2023-02-24T00:17:48;100322.00;;;6.63;100.00
44359;BME280;30077;52.474;13.326;2023-02-24T00:22:48;100323.84;;;6.61;100.00
44359;BME280;30077;52.474;13.326;2023-02-24T00:27:48;100323.94;;;6.58;100.00
44359;BME280;30077;52.474;13.326;2023-02-24T00:32:48;100315.28;;;6.53;100.00
44359;BME280;30077;52.474;13.326;2023-02-24T00:37:49;100305.00;;;6.44;100.00
44359;BME280;30077;52.474;13.326;2023-02-24T00:42:50;100299.69;;;6.44;100.00
44359;BME280;30077;52.474;13.326;2023-02-24T00:47:52;100314.88;;;6.39;100.00
44359;BME280;30077;52.474;13.326;2023-02-24T00:52:54;100320.56;;;6.00;100.00
44359;BME280;30077;52.474;13.326;2023-02-24T00:57:55;100323.31;;;5.67;100.00
44359;BME280;30077;52.474;13.326;2023-02-24T01:02:55;100315.94;;;5.49;100.00
44359;BME280;30077;52.474;13.326;2023-02-24T01:07:58;100316.34;;;5.34;100.00
44359;BME280;30077;52.474;13.326;2023-02-24T01:12:58;100307.22;;;5.14;100.00
44359;BME280;30077;52.474;13.326;2023-02-24T01:17:58;100310.72;;;5.16;100.00
44359;BME280;30077;52.474;13.326;2023-02-24T01:22:58;100303.66;;;5.15;100.00
44359;BME280;30077;52.474;13.326;2023-02-24T01:27:59;100310.19;;;5.03;100.00
44359;BME280;30077;52.474;13.326;2023-02-24T01:32:59;100307.59;;;5.02;100.00
44359;BME280;30077;52.474;13.326;2023-02-24T01:38:00;100305.03;;;4.99;100.00
44359;BME280;30077;52.474;13.326;2023-02-24T01:43:04;100302.31;;;4.69;100.00
44359;BME280;30077;52.474;13.326;2023-02-24T01:48:08;100291.25;;;4.55;100.00
44359;BME280;30077;52.474;13.326;2023-02-24T01:53:08;100289.81;;;4.42;100.00
44359;BME280;30077;52.474;13.326;2023-02-24T01:58:12;100301.53;;;4.31;100.00
44359;BME280;30077;52.474;13.326;2023-02-24T02:03:17;100272.78;;;4.19;100.00
44359;BME280;30077;52.474;13.326;2023-02-24T02:08:18;100278.66;;;4.30;100.00
44359;BME280;30077;52.474;13.326;2023-02-24T02:13:20;100281.63;;;4.18;100.00
44359;BME280;30077;52.474;13.326;2023-02-24T02:18:24;100277.25;;;4.17;100.00
44359;BME280;30077;52.474;13.326;2023-02-24T02:23:39;100270.69;;;4.33;100.00
44359;BME280;30077;52.474;13.326;2023-02-24T02:34:06;100261.22;;;4.25;100.00
44359;BME280;30077;52.474;13.326;2023-02-24T02:39:09;100269.50;;;4.11;100.00
44359;BME280;30077;52.474;13.326;2023-02-24T02:44:18;100279.66;;;3.91;99.44
44359;BME280;30077;52.474;13.326;2023-02-24T02:49:21;100261.41;;;3.81;97.29
44359;BME280;30077;52.474;13.326;2023-02-24T02:54:25;100266.91;;;3.72;97.16
44359;BME280;30077;52.474;13.326;2023-02-24T02:59:28;100259.91;;;3.70;97.74
44359;BME280;30077;52.474;13.326;2023-02-24T03:04:30;100261.50;;;3.78;98.30
44359;BME280;30077;52.474;13.326;2023-02-24T03:09:34;100260.50;;;3.82;96.57
44359;BME280;30077;52.474;13.326;2023-02-24T03:14:37;100258.00;;;3.76;96.94
44359;BME280;30077;52.474;13.326;2023-02-24T03:19:38;100246.59;;;3.76;97.23
44359;BME280;30077;52.474;13.326;2023-02-24T03:24:41;100248.19;;;3.83;96.96
44359;BME280;30077;52.474;13.326;2023-02-24T03:29:49;100242.91;;;3.83;98.36
44359;BME280;30077;52.474;13.326;2023-02-24T03:34:59;100224.47;;;3.81;98.01
44359;BME280;30077;52.474;13.326;2023-02-24T03:40:04;100226.28;;;3.79;98.41
44359;BME280;30077;52.474;13.326;2023-02-24T03:45:14;100210.38;;;3.82;99.31
44359;BME280;30077;52.474;13.326;2023-02-24T03:50:16;100214.75;;;3.83;98.86
44359;BME280;30077;52.474;13.326;2023-02-24T03:55:33;100212.81;;;3.90;96.63
44359;BME280;30077;52.474;13.326;2023-02-24T04:00:45;100202.31;;;3.89;97.32
44359;BME280;30077;52.474;13.326;2023-02-24T04:06:02;100196.13;;;3.90;96.32
44359;BME280;30077;52.474;13.326;2023-02-24T04:11:11;100189.19;;;3.85;97.29
44359;BME280;30077;52.474;13.326;2023-02-24T04:16:31;100189.94;;;3.91;96.16
44359;BME280;30077;52.474;13.326;2023-02-24T04:21:36;100183.66;;;3.95;96.86
44359;BME280;30077;52.474;13.326;2023-02-24T04:26:38;100187.16;;;3.97;97.42
44359;BME280;30077;52.474;13.326;2023-02-24T04:31:39;100174.94;;;3.93;96.24
44359;BME280;30077;52.474;13.326;2023-02-24T04:36:39;100168.16;;;3.82;97.21
44359;BME280;30077;52.474;13.326;2023-02-24T04:41:40;100159.25;;;3.86;95.90
44359;BME280;30077;52.474;13.326;2023-02-24T04:46:40;100157.59;;;3.82;94.61
44359;BME280;30077;52.474;13.326;2023-02-24T04:51:40;100160.81;;;3.94;94.60
44359;BME280;30077;52.474;13.326;2023-02-24T04:56:44;100153.91;;;3.88;96.50
44359;BME280;30077;52.474;13.326;2023-02-24T05:01:47;100134.59;;;3.88;95.74
44359;BME280;30077;52.474;13.326;2023-02-24T05:06:50;100134.78;;;3.81;95.26
44359;BME280;30077;52.474;13.326;2023-02-24T05:11:50;100139.06;;;3.85;94.85
44359;BME280;30077;52.474;13.326;2023-02-24T05:16:51;100127.75;;;3.80;96.42
44359;BME280;30077;52.474;13.326;2023-02-24T05:21:51;100117.16;;;3.82;95.62
44359;BME280;30077;52.474;13.326;2023-02-24T05:26:52;100113.47;;;3.88;94.75
44359;BME280;30077;52.474;13.326;2023-02-24T05:31:58;100110.09;;;3.82;95.87
44359;BME280;30077;52.474;13.326;2023-02-24T05:36:59;100108.38;;;3.81;96.48
44359;BME280;30077;52.474;13.326;2023-02-24T05:42:00;100102.91;;;3.88;95.99
44359;BME280;30077;52.474;13.326;2023-02-24T05:47:05;100088.84;;;3.89;95.74
44359;BME280;30077;52.474;13.326;2023-02-24T05:52:06;100089.72;;;3.88;95.85
44359;BME280;30077;52.474;13.326;2023-02-24T05:57:08;100087.94;;;3.90;95.49
44359;BME280;30077;52.474;13.326;2023-02-24T06:02:12;100087.09;;;3.88;96.18
44359;BME280;30077;52.474;13.326;2023-02-24T06:07:17;100080.00;;;3.90;95.42
44359;BME280;30077;52.474;13.326;2023-02-24T06:12:18;100077.44;;;3.86;95.49
44359;BME280;30077;52.474;13.326;2023-02-24T06:17:19;100067.03;;;3.82;95.61
44359;BME280;30077;52.474;13.326;2023-02-24T06:22:20;100076.59;;;3.86;95.79
44359;BME280;30077;52.474;13.326;2023-02-24T06:27:21;100068.66;;;3.86;94.29
44359;BME280;30077;52.474;13.326;2023-02-24T06:32:23;100062.09;;;4.01;92.84
44359;BME280;30077;52.474;13.326;2023-02-24T06:37:24;100050.69;;;4.00;93.39
44359;BME280;30077;52.474;13.326;2023-02-24T06:42:24;100052.94;;;4.14;91.33
44359;BME280;30077;52.474;13.326;2023-02-24T06:47:24;100040.38;;;4.22;90.14
44359;BME280;30077;52.474;13.326;2023-02-24T06:52:28;100039.53;;;4.20;89.81
44359;BME280;30077;52.474;13.326;2023-02-24T06:57:30;100031.38;;;4.29;88.99
44359;BME280;30077;52.474;13.326;2023-02-24T07:02:33;100034.91;;;4.28;85.37
44359;BME280;30077;52.474;13.326;2023-02-24T07:07:38;100018.41;;;4.22;86.35
44359;BME280;30077;52.474;13.326;2023-02-24T07:12:44;100018.03;;;4.34;84.34
44359;BME280;30077;52.474;13.326;2023-02-24T07:17:44;100024.34;;;4.28;83.31
44359;BME280;30077;52.474;13.326;2023-02-24T07:22:46;100013.91;;;4.25;83.28
44359;BME280;30077;52.474;13.326;2023-02-24T07:27:46;100010.94;;;4.36;81.09
44359;BME280;30077;52.474;13.326;2023-02-24T07:32:47;99995.19;;;4.33;77.03
44359;BME280;30077;52.474;13.326;2023-02-24T07:37:47;99987.09;;;4.38;76.07
44359;BME280;30077;52.474;13.326;2023-02-24T07:42:48;99994.19;;;4.35;75.39
44359;BME280;30077;52.474;13.326;2023-02-24T07:47:48;99975.09;;;4.27;76.98
44359;BME280;30077;52.474;13.326;2023-02-24T07:52:48;99960.53;;;4.44;76.74
44359;BME280;30077;52.474;13.326;2023-02-24T07:57:49;99959.94;;;4.62;77.32
44359;BME280;30077;52.474;13.326;2023-02-24T08:02:53;99943.38;;;4.83;76.97
44359;BME280;30077;52.474;13.326;2023-02-24T08:07:54;99925.72;;;5.11;76.66
44359;BME280;30077;52.474;13.326;2023-02-24T08:12:55;99917.50;;;5.18;75.25
44359;BME280;30077;52.474;13.326;2023-02-24T08:18:02;99913.59;;;5.05;75.47
44359;BME280;30077;52.474;13.326;2023-02-24T08:23:02;99902.09;;;5.06;76.78
44359;BME280;30077;52.474;13.326;2023-02-24T08:28:05;99894.84;;;5.11;76.89
44359;BME280;30077;52.474;13.326;2023-02-24T08:33:10;99887.53;;;5.19;75.54
44359;BME280;30077;52.474;13.326;2023-02-24T08:38:15;99866.56;;;5.38;75.44
44359;BME280;30077;52.474;13.326;2023-02-24T08:48:30;99864.06;;;5.80;73.13
44359;BME280;30077;52.474;13.326;2023-02-24T08:53:36;99857.25;;;5.98;73.16
44359;BME280;30077;52.474;13.326;2023-02-24T08:58:43;99851.84;;;6.23;72.97
44359;BME280;30077;52.474;13.326;2023-02-24T09:03:47;99839.41;;;6.25;72.65
44359;BME280;30077;52.474;13.326;2023-02-24T09:08:47;99822.88;;;6.41;71.07
44359;BME280;30077;52.474;13.326;2023-02-24T09:13:48;99819.19;;;6.45;70.97
44359;BME280;30077;52.474;13.326;2023-02-24T09:18:50;99811.91;;;6.28;70.69
44359;BME280;30077;52.474;13.326;2023-02-24T09:24:09;99811.91;;;6.28;73.32
44359;BME280;30077;52.474;13.326;2023-02-24T09:29:11;99808.25;;;6.32;74.31
44359;BME280;30077;52.474;13.326;2023-02-24T09:34:36;99795.56;;;6.18;71.97
44359;BME280;30077;52.474;13.326;2023-02-24T09:39:37;99786.25;;;6.30;70.96
44359;BME280;30077;52.474;13.326;2023-02-24T09:44:56;99776.09;;;6.19;71.21
44359;BME280;30077;52.474;13.326;2023-02-24T09:50:01;99769.72;;;6.03;70.61
44359;BME280;30077;52.474;13.326;2023-02-24T09:55:03;99763.78;;;6.18;70.08
44359;BME280;30077;52.474;13.326;2023-02-24T10:00:34;99745.94;;;6.44;69.24
44359;BME280;30077;52.474;13.326;2023-02-24T10:05:44;99748.44;;;6.47;68.59
44359;BME280;30077;52.474;13.326;2023-02-24T10:10:47;99742.28;;;6.46;68.42
44359;BME280;30077;52.474;13.326;2023-02-24T10:16:06;99722.06;;;6.64;67.52
44359;BME280;30077;52.474;13.326;2023-02-24T10:21:19;99722.47;;;6.75;66.76
44359;BME280;30077;52.474;13.326;2023-02-24T10:26:47;99719.81;;;6.75;66.94
44359;BME280;30077;52.474;13.326;2023-02-24T10:31:53;99713.56;;;6.77;66.41
44359;BME280;30077;52.474;13.326;2023-02-24T10:37:00;99698.81;;;6.90;67.64
44359;BME280;30077;52.474;13.326;2023-02-24T10:42:05;99683.75;;;6.71;66.34
44359;BME280;30077;52.474;13.326;2023-02-24T10:47:14;99685.88;;;6.63;67.33
44359;BME280;30077;52.474;13.326;2023-02-24T10:52:16;99676.09;;;6.45;67.90
44359;BME280;30077;52.474;13.326;2023-02-24T10:57:42;99674.91;;;6.32;70.07
44359;BME280;30077;52.474;13.326;2023-02-24T11:02:52;99677.44;;;6.14;74.83
44359;BME280;30077;52.474;13.326;2023-02-24T11:08:13;99671.78;;;6.01;79.53
44359;BME280;30077;52.474;13.326;2023-02-24T11:13:32;99652.38;;;5.59;86.78
44359;BME280;30077;52.474;13.326;2023-02-24T11:18:51;99648.50;;;5.23;92.04
44359;BME280;30077;52.474;13.326;2023-02-24T11:23:55;99626.00;;;4.90;98.02
44359;BME280;30077;52.474;13.326;2023-02-24T11:39:21;99606.00;;;4.37;100.00
44359;BME280;30077;52.474;13.326;2023-02-24T11:49:44;99585.72;;;4.38;100.00
44359;BME280;30077;52.474;13.326;2023-02-24T11:54:48;99569.25;;;4.31;100.00
44359;BME280;30077;52.474;13.326;2023-02-24T11:59:53;99554.63;;;4.22;100.00
44359;BME280;30077;52.474;13.326;2023-02-24T12:04:59;99555.69;;;4.17;100.00
44359;BME280;30077;52.474;13.326;2023-02-24T12:10:03;99532.91;;;4.14;100.00
44359;BME280;30077;52.474;13.326;2023-02-24T12:15:47;99528.91;;;4.04;100.00
44359;BME280;30077;52.474;13.326;2023-02-24T12:25:55;99512.56;;;4.18;100.00
44359;BME280;30077;52.474;13.326;2023-02-24T12:31:17;99497.16;;;4.29;100.00
44359;BME280;30077;52.474;13.326;2023-02-24T12:41:27;99479.88;;;4.20;100.00
44359;BME280;30077;52.474;13.326;2023-02-24T12:46:32;99482.78;;;4.14;100.00
44359;BME280;30077;52.474;13.326;2023-02-24T12:51:37;99468.75;;;4.12;100.00
44359;BME280;30077;52.474;13.326;2023-02-24T13:01:54;99436.00;;;3.94;100.00
44359;BME280;30077;52.474;13.326;2023-02-24T13:06:59;99429.63;;;3.76;100.00
44359;BME280;30077;52.474;13.326;2023-02-24T13:17:20;99403.63;;;3.67;100.00
44359;BME280;30077;52.474;13.326;2023-02-24T13:22:23;99394.78;;;3.68;100.00
44359;BME280;30077;52.474;13.326;2023-02-24T13:27:28;99394.13;;;3.61;100.00
44359;BME280;30077;52.474;13.326;2023-02-24T13:32:30;99384.91;;;3.50;100.00
44359;BME280;30077;52.474;13.326;2023-02-24T13:37:35;99370.69;;;3.54;100.00
44359;BME280;30077;52.474;13.326;2023-02-24T13:42:36;99360.47;;;3.45;100.00
44359;BME280;30077;52.474;13.326;2023-02-24T14:03:23;99332.16;;;3.26;100.00
44359;BME280;30077;52.474;13.326;2023-02-24T14:08:46;99315.44;;;3.27;100.00
44359;BME280;30077;52.474;13.326;2023-02-24T14:13:45;99315.19;;;3.33;100.00
44359;BME280;30077;52.474;13.326;2023-02-24T14:18:51;99307.84;;;3.18;100.00
44359;BME280;30077;52.474;13.326;2023-02-24T14:23:56;99306.19;;;3.16;100.00
44359;BME280;30077;52.474;13.326;2023-02-24T14:28:57;99298.13;;;3.20;100.00
44359;BME280;30077;52.474;13.326;2023-02-24T14:34:00;99294.78;;;3.15;100.00
44359;BME280;30077;52.474;13.326;2023-02-24T14:44:21;99271.50;;;3.28;100.00
44359;BME280;30077;52.474;13.326;2023-02-24T14:49:23;99267.53;;;3.40;100.00
44359;BME280;30077;52.474;13.326;2023-02-24T14:54:30;99260.13;;;3.26;100.00
44359;BME280;30077;52.474;13.326;2023-02-24T14:59:34;99252.28;;;3.24;100.00
44359;BME280;30077;52.474;13.326;2023-02-24T15:04:38;99246.31;;;3.19;100.00
44359;BME280;30077;52.474;13.326;2023-02-24T15:09:42;99238.56;;;3.16;100.00
44359;BME280;30077;52.474;13.326;2023-02-24T15:14:46;99239.56;;;3.12;100.00
44359;BME280;30077;52.474;13.326;2023-02-24T15:19:47;99228.34;;;3.07;100.00
44359;BME280;30077;52.474;13.326;2023-02-24T15:35:31;99193.09;;;2.87;100.00
44359;BME280;30077;52.474;13.326;2023-02-24T15:40:32;99185.28;;;2.84;100.00
44359;BME280;30077;52.474;13.326;2023-02-24T15:45:33;99178.16;;;2.86;100.00
44359;BME280;30077;52.474;13.326;2023-02-24T15:50:35;99170.41;;;2.83;100.00
44359;BME280;30077;52.474;13.326;2023-02-24T15:55:36;99156.22;;;2.87;100.00
44359;BME280;30077;52.474;13.326;2023-02-24T16:00:36;99165.81;;;2.88;100.00
44359;BME280;30077;52.474;13.326;2023-02-24T16:05:37;99148.19;;;2.91;100.00
44359;BME280;30077;52.474;13.326;2023-02-24T16:10:37;99141.19;;;2.89;100.00
44359;BME280;30077;52.474;13.326;2023-02-24T16:15:38;99142.94;;;2.91;100.00
44359;BME280;30077;52.474;13.326;2023-02-24T16:20:41;99134.00;;;2.95;100.00
44359;BME280;30077;52.474;13.326;2023-02-24T16:25:42;99128.00;;;2.89;100.00
44359;BME280;30077;52.474;13.326;2023-02-24T16:30:43;99127.78;;;2.96;100.00
44359;BME280;30077;52.474;13.326;2023-02-24T16:35:43;99125.03;;;2.99;100.00
44359;BME280;30077;52.474;13.326;2023-02-24T16:40:45;99118.84;;;3.00;100.00
44359;BME280;30077;52.474;13.326;2023-02-24T16:45:45;99109.25;;;2.99;100.00
44359;BME280;30077;52.474;13.326;2023-02-24T16:50:46;99100.41;;;3.00;100.00
44359;BME280;30077;52.474;13.326;2023-02-24T16:55:47;99092.38;;;3.03;100.00
44359;BME280;30077;52.474;13.326;2023-02-24T17:00:47;99093.06;;;3.08;100.00
44359;BME280;30077;52.474;13.326;2023-02-24T17:05:49;99089.56;;;3.07;100.00
44359;BME280;30077;52.474;13.326;2023-02-24T17:10:50;99086.81;;;3.10;100.00
44359;BME280;30077;52.474;13.326;2023-02-24T17:15:51;99079.13;;;3.26;100.00
44359;BME280;30077;52.474;13.326;2023-02-24T17:20:56;99082.81;;;3.22;100.00
44359;BME280;30077;52.474;13.326;2023-02-24T17:25:57;99074.19;;;3.19;100.00
44359;BME280;30077;52.474;13.326;2023-02-24T17:30:58;99064.25;;;3.25;100.00
44359;BME280;30077;52.474;13.326;2023-02-24T17:35:59;99063.28;;;3.28;100.00
44359;BME280;30077;52.474;13.326;2023-02-24T17:40:59;99071.22;;;3.26;100.00
44359;BME280;30077;52.474;13.326;2023-02-24T17:46:01;99065.72;;;3.32;100.00
44359;BME280;30077;52.474;13.326;2023-02-24T17:51:01;99055.16;;;3.32;100.00
44359;BME280;30077;52.474;13.326;2023-02-24T17:56:02;99038.56;;;3.30;100.00
44359;BME280;30077;52.474;13.326;2023-02-24T18:01:04;99035.78;;;3.33;100.00
44359;BME280;30077;52.474;13.326;2023-02-24T18:06:09;99042.94;;;3.31;100.00
44359;BME280;30077;52.474;13.326;2023-02-24T18:11:11;99018.03;;;3.38;100.00
44359;BME280;30077;52.474;13.326;2023-02-24T18:16:13;99011.81;;;3.40;100.00
44359;BME280;30077;52.474;13.326;2023-02-24T18:21:13;99012.47;;;3.45;100.00
44359;BME280;30077;52.474;13.326;2023-02-24T18:26:14;99009.19;;;3.40;100.00
44359;BME280;30077;52.474;13.326;2023-02-24T18:31:16;99000.34;;;3.41;100.00
44359;BME280;30077;52.474;13.326;2023-02-24T18:36:17;98994.81;;;3.47;100.00
44359;BME280;30077;52.474;13.326;2023-02-24T18:41:19;98983.28;;;3.49;100.00
44359;BME280;30077;52.474;13.326;2023-02-24T18:46:20;98989.34;;;3.51;100.00
44359;BME280;30077;52.474;13.326;2023-02-24T18:51:22;98975.31;;;3.51;100.00
44359;BME280;30077;52.474;13.326;2023-02-24T18:56:25;98972.22;;;3.61;100.00
44359;BME280;30077;52.474;13.326;2023-02-24T19:01:30;98967.53;;;3.68;100.00
44359;BME280;30077;52.474;13.326;2023-02-24T19:06:31;98960.47;;;3.69;100.00
44359;BME280;30077;52.474;13.326;2023-02-24T19:11:33;98956.97;;;3.68;100.00
44359;BME280;30077;52.474;13.326;2023-02-24T19:16:33;98958.53;;;3.72;100.00
44359;BME280;30077;52.474;13.326;2023-02-24T19:21:33;98944.44;;;3.73;100.00
44359;BME280;30077;52.474;13.326;2023-02-24T19:26:33;98942.00;;;3.69;100.00
44359;BME280;30077;52.474;13.326;2023-02-24T19:31:34;98928.59;;;3.73;100.00
44359;BME280;30077;52.474;13.326;2023-02-24T19:36:34;98931.06;;;3.78;100.00
44359;BME280;30077;52.474;13.326;2023-02-24T19:41:35;98919.50;;;3.80;100.00
44359;BME280;30077;52.474;13.326;2023-02-24T19:46:37;98912.50;;;3.79;100.00
44359;BME280;30077;52.474;13.326;2023-02-24T19:51:37;98907.22;;;3.79;100.00
44359;BME280;30077;52.474;13.326;2023-02-24T19:56:38;98899.81;;;3.88;100.00
44359;BME280;30077;52.474;13.326;2023-02-24T20:01:38;98895.75;;;3.80;100.00
44359;BME280;30077;52.474;13.326;2023-02-24T20:06:39;98901.16;;;3.77;100.00
44359;BME280;30077;52.474;13.326;2023-02-24T20:11:40;98887.00;;;3.80;100.00
44359;BME280;30077;52.474;13.326;2023-02-24T20:16:40;98887.97;;;3.77;100.00
44359;BME280;30077;52.474;13.326;2023-02-24T20:21:41;98884.56;;;3.75;100.00
44359;BME280;30077;52.474;13.326;2023-02-24T20:26:42;98885.56;;;3.73;100.00
44359;BME280;30077;52.474;13.326;2023-02-24T20:31:45;98881.22;;;3.72;100.00
44359;BME280;30077;52.474;13.326;2023-02-24T20:36:45;98875.09;;;3.71;100.00
44359;BME280;30077;52.474;13.326;2023-02-24T20:41:46;98872.31;;;3.74;100.00
44359;BME280;30077;52.474;13.326;2023-02-24T20:46:47;98867.03;;;3.74;100.00
44359;BME280;30077;52.474;13.326;2023-02-24T20:51:47;98860.69;;;3.78;100.00
44359;BME280;30077;52.474;13.326;2023-02-24T20:56:48;98852.84;;;3.77;100.00
44359;BME280;30077;52.474;13.326;2023-02-24T21:01:48;98852.91;;;3.75;100.00
44359;BME280;30077;52.474;13.326;2023-02-24T21:06:48;98842.16;;;3.80;100.00
44359;BME280;30077;52.474;13.326;2023-02-24T21:11:50;98839.66;;;3.77;100.00
44359;BME280;30077;52.474;13.326;2023-02-24T21:16:50;98832.44;;;3.80;100.00
44359;BME280;30077;52.474;13.326;2023-02-24T21:21:50;98822.69;;;3.82;100.00
44359;BME280;30077;52.474;13.326;2023-02-24T21:26:50;98812.41;;;3.76;100.00
44359;BME280;30077;52.474;13.326;2023-02-24T21:31:51;98807.28;;;3.73;100.00
44359;BME280;30077;52.474;13.326;2023-02-24T21:36:51;98807.28;;;3.73;100.00
44359;BME280;30077;52.474;13.326;2023-02-24T21:41:51;98803.56;;;3.77;100.00
44359;BME280;30077;52.474;13.326;2023-02-24T21:46:52;98796.22;;;3.84;100.00
44359;BME280;30077;52.474;13.326;2023-02-24T21:51:52;98795.09;;;3.90;100.00
44359;BME280;30077;52.474;13.326;2023-02-24T21:56:54;98787.66;;;3.98;100.00
44359;BME280;30077;52.474;13.326;2023-02-24T22:01:54;98776.03;;;4.02;100.00
44359;BME280;30077;52.474;13.326;2023-02-24T22:06:54;98780.03;;;4.10;100.00
44359;BME280;30077;52.474;13.326;2023-02-24T22:11:54;98768.44;;;4.13;100.00
44359;BME280;30077;52.474;13.326;2023-02-24T22:16:54;98762.06;;;4.00;100.00
44359;BME280;30077;52.474;13.326;2023-02-24T22:21:57;98756.78;;;4.00;100.00
44359;BME280;30077;52.474;13.326;2023-02-24T22:26:57;98751.53;;;4.00;100.00
44359;BME280;30077;52.474;13.326;2023-02-24T22:31:57;98747.94;;;4.01;100.00
44359;BME280;30077;52.474;13.326;2023-02-24T22:36:58;98754.47;;;4.11;100.00
44359;BME280;30077;52.474;13.326;2023-02-24T22:41:58;98749.34;;;4.08;100.00
44359;BME280;30077;52.474;13.326;2023-02-24T22:46:58;98745.78;;;4.09;100.00
44359;BME280;30077;52.474;13.326;2023-02-24T22:51:58;98745.63;;;4.12;100.00
44359;BME280;30077;52.474;13.326;2023-02-24T22:56:58;98742.28;;;4.08;100.00
44359;BME280;30077;52.474;13.326;2023-02-24T23:01:59;98740.63;;;4.06;100.00
44359;BME280;30077;52.474;13.326;2023-02-24T23:06:59;98736.69;;;3.97;100.00
44359;BME280;30077;52.474;13.326;2023-02-24T23:11:59;98738.72;;;3.92;100.00
44359;BME280;30077;52.474;13.326;2023-02-24T23:16:59;98743.50;;;4.01;100.00
44359;BME280;30077;52.474;13.326;2023-02-24T23:21:59;98733.06;;;4.00;100.00
44359;BME280;30077;52.474;13.326;2023-02-24T23:26:59;98732.56;;;4.09;100.00
44359;BME280;30077;52.474;13.326;2023-02-24T23:32:00;98729.69;;;4.14;100.00
44359;BME280;30077;52.474;13.326;2023-02-24T23:37:01;98731.81;;;4.07;100.00
44359;BME280;30077;52.474;13.326;2023-02-24T23:42:01;98736.38;;;4.03;100.00
44359;BME280;30077;52.474;13.326;2023-02-24T23:47:01;98737.50;;;3.80;100.00
44359;BME280;30077;52.474;13.326;2023-02-24T23:52:03;98711.06;;;3.63;100.00
44359;BME280;30077;52.474;13.326;2023-02-24T23:57:04;98713.22;;;3.55;100.00
